createdAt,value
2022-11-25T00:01:27.009Z,4.25
2022-11-25T00:03:56.850Z,4.29
2022-11-25T00:06:27.010Z,4.33
2022-11-25T00:08:58.997Z,4.41
2022-11-25T00:11:27.958Z,4.46
2022-11-25T00:13:56.931Z,4.47
2022-11-25T00:16:26.520Z,4.52
2022-11-25T00:18:56.770Z,4.59
2022-11-25T00:21:27.000Z,4.70
2022-11-25T00:23:57.650Z,4.75
2022-11-25T00:26:26.970Z,4.76
2022-11-25T00:28:57.627Z,4.80
2022-11-25T00:31:28.396Z,4.79
2022-11-25T00:33:56.649Z,4.78
2022-11-25T00:36:27.152Z,4.81
2022-11-25T00:38:57.980Z,4.85
2022-11-25T00:41:44.769Z,4.88
2022-11-25T00:44:32.999Z,4.89
2022-11-25T00:47:01.511Z,4.91
2022-11-25T00:49:29.709Z,4.93
2022-11-25T00:51:58.030Z,4.95
2022-11-25T00:54:27.410Z,4.93
2022-11-25T00:56:55.488Z,4.93
2022-11-25T00:59:23.650Z,4.93
2022-11-25T01:01:51.977Z,4.93
2022-11-25T01:04:20.102Z,4.94
2022-11-25T01:06:48.349Z,4.91
2022-11-25T01:09:16.787Z,4.88
2022-11-25T01:11:46.329Z,4.86
2022-11-25T01:14:14.419Z,4.84
2022-11-25T01:16:42.585Z,4.82
2022-11-25T01:19:12.628Z,4.84
2022-11-25T01:21:40.803Z,4.83
2022-11-25T01:24:09.221Z,4.82
2022-11-25T01:26:37.566Z,4.83
2022-11-25T01:29:12.890Z,4.89
2022-11-25T01:31:41.169Z,4.98
2022-11-25T01:34:13.808Z,5.04
2022-11-25T01:36:42.297Z,5.06
2022-11-25T01:39:17.229Z,5.03
2022-11-25T01:41:45.849Z,4.96
2022-11-25T01:44:16.819Z,4.93
2022-11-25T01:46:51.579Z,4.88
2022-11-25T01:49:26.329Z,4.82
2022-11-25T01:52:02.289Z,4.74
2022-11-25T01:54:35.804Z,4.67
2022-11-25T01:57:07.469Z,4.59
2022-11-25T01:59:41.300Z,4.51
2022-11-25T02:02:09.825Z,4.45
2022-11-25T02:04:41.479Z,4.32
2022-11-25T02:07:14.270Z,4.24
2022-11-25T02:09:46.911Z,4.16
2022-11-25T02:12:16.989Z,4.15
2022-11-25T02:14:46.608Z,4.08
2022-11-25T02:17:14.749Z,4.07
2022-11-25T02:19:57.609Z,4.09
2022-11-25T02:22:34.509Z,4.09
2022-11-25T02:25:10.698Z,4.11
2022-11-25T02:27:38.912Z,4.12
2022-11-25T02:30:08.058Z,4.16
2022-11-25T02:32:36.188Z,4.21
2022-11-25T02:35:24.179Z,4.25
2022-11-25T02:37:52.639Z,4.27
2022-11-25T02:40:22.209Z,4.26
2022-11-25T02:42:51.558Z,4.25
2022-11-25T02:45:27.620Z,4.26
2022-11-25T02:47:56.249Z,4.22
2022-11-25T02:50:24.377Z,4.24
2022-11-25T02:52:52.591Z,4.22
2022-11-25T02:55:22.498Z,4.24
2022-11-25T02:57:50.599Z,4.25
2022-11-25T03:00:19.678Z,4.19
2022-11-25T03:02:48.118Z,4.16
2022-11-25T03:05:16.269Z,4.10
2022-11-25T03:07:44.402Z,4.07
2022-11-25T03:10:13.146Z,4.10
2022-11-25T03:12:42.609Z,4.13
2022-11-25T03:15:11.629Z,4.12
2022-11-25T03:17:40.379Z,4.04
2022-11-25T03:20:12.708Z,4.02
2022-11-25T03:22:41.019Z,4.03
2022-11-25T03:25:10.008Z,3.95
2022-11-25T03:27:39.069Z,3.91
2022-11-25T03:30:12.609Z,3.87
2022-11-25T03:32:41.879Z,3.90
2022-11-25T03:35:10.738Z,3.92
2022-11-25T03:37:39.399Z,3.94
2022-11-25T03:40:11.232Z,3.92
2022-11-25T03:42:41.248Z,3.95
2022-11-25T03:45:14.680Z,3.94
2022-11-25T03:47:45.789Z,3.93
2022-11-25T03:50:16.371Z,3.94
2022-11-25T03:52:47.289Z,3.93
2022-11-25T03:55:15.572Z,3.90
2022-11-25T03:57:46.527Z,3.81
2022-11-25T04:00:16.419Z,3.80
2022-11-25T04:02:52.527Z,3.81
2022-11-25T04:05:21.778Z,3.87
2022-11-25T04:07:56.331Z,3.91
2022-11-25T04:10:26.084Z,3.90
2022-11-25T04:12:55.470Z,3.86
2022-11-25T04:15:31.039Z,3.79
2022-11-25T04:18:00.439Z,3.73
2022-11-25T04:20:28.640Z,3.71
2022-11-25T04:23:02.838Z,3.73
2022-11-25T04:25:31.018Z,3.75
2022-11-25T04:27:59.379Z,3.79
2022-11-25T04:30:34.852Z,3.84
2022-11-25T04:33:04.379Z,3.86
2022-11-25T04:35:32.524Z,3.87
2022-11-25T04:38:03.789Z,3.84
2022-11-25T04:40:34.601Z,3.85
2022-11-25T04:43:13.981Z,3.86
2022-11-25T04:46:13.190Z,3.92
2022-11-25T04:48:40.570Z,3.97
2022-11-25T04:51:08.849Z,4.02
2022-11-25T04:53:37.019Z,4.02
2022-11-25T04:56:06.078Z,3.97
2022-11-25T04:58:59.280Z,4.01
2022-11-25T05:01:29.829Z,3.96
2022-11-25T05:04:07.088Z,3.92
2022-11-25T05:06:37.243Z,3.92
2022-11-25T05:09:05.812Z,3.95
2022-11-25T05:11:36.998Z,3.98
2022-11-25T05:14:05.308Z,3.93
2022-11-25T05:16:35.890Z,3.92
2022-11-25T05:19:04.789Z,3.94
2022-11-25T05:21:34.149Z,3.95
2022-11-25T05:24:02.869Z,4.04
2022-11-25T05:26:32.391Z,4.04
2022-11-25T05:29:01.741Z,4.08
2022-11-25T05:31:32.327Z,4.06
2022-11-25T05:34:03.450Z,4.08
2022-11-25T05:36:32.510Z,4.10
2022-11-25T05:39:01.148Z,4.07
2022-11-25T05:41:49.228Z,4.04
2022-11-25T05:44:22.692Z,4.03
2022-11-25T05:46:53.569Z,4.00
2022-11-25T05:49:23.239Z,3.99
2022-11-25T05:51:52.213Z,3.97
2022-11-25T05:54:22.718Z,3.96
2022-11-25T05:56:51.589Z,3.97
2022-11-25T05:59:38.038Z,3.96
2022-11-25T06:02:11.246Z,3.94
2022-11-25T06:04:40.760Z,3.93
2022-11-25T06:07:09.994Z,3.96
2022-11-25T06:09:38.298Z,3.92
2022-11-25T06:12:07.612Z,3.86
2022-11-25T06:14:40.799Z,3.86
2022-11-25T06:17:09.039Z,3.82
2022-11-25T06:19:48.068Z,3.86
2022-11-25T06:22:16.818Z,3.86
2022-11-25T06:24:49.298Z,3.86
2022-11-25T06:27:23.798Z,3.85
2022-11-25T06:29:51.829Z,3.79
2022-11-25T06:32:19.979Z,3.75
2022-11-25T06:34:58.107Z,3.79
2022-11-25T06:37:35.048Z,3.79
2022-11-25T06:40:03.562Z,3.75
2022-11-25T06:42:31.919Z,3.70
2022-11-25T06:45:00.129Z,3.66
2022-11-25T06:47:28.479Z,3.62
2022-11-25T06:49:57.889Z,3.61
2022-11-25T06:52:26.078Z,3.57
2022-11-25T06:54:54.238Z,3.58
2022-11-25T06:57:22.339Z,3.55
2022-11-25T06:59:51.368Z,3.53
2022-11-25T07:02:19.569Z,3.49
2022-11-25T07:04:47.738Z,3.44
2022-11-25T07:07:17.228Z,3.42
2022-11-25T07:09:45.439Z,3.37
2022-11-25T07:12:13.548Z,3.30
2022-11-25T07:14:41.810Z,3.25
2022-11-25T07:17:12.232Z,3.14
2022-11-25T07:19:40.689Z,3.07
2022-11-25T07:22:08.841Z,3.04
2022-11-25T07:24:38.752Z,3.03
2022-11-25T07:27:07.013Z,3.02
2022-11-25T07:29:57.981Z,3.00
2022-11-25T07:32:24.729Z,2.94
2022-11-25T07:34:52.827Z,2.88
2022-11-25T07:37:20.939Z,2.82
2022-11-25T07:39:50.339Z,2.72
2022-11-25T07:42:18.459Z,2.69
2022-11-25T07:44:46.525Z,2.72
2022-11-25T07:47:35.447Z,2.71
2022-11-25T07:50:03.580Z,2.67
2022-11-25T07:52:31.660Z,2.62
2022-11-25T07:55:01.169Z,2.61
2022-11-25T07:57:30.242Z,2.63
2022-11-25T07:59:58.353Z,2.60
2022-11-25T08:02:27.081Z,2.59
2022-11-25T08:04:55.340Z,2.62
2022-11-25T08:07:23.619Z,2.57
2022-11-25T08:09:53.078Z,2.62
2022-11-25T08:12:22.463Z,2.66
2022-11-25T08:14:50.619Z,2.64
2022-11-25T08:17:18.750Z,2.68
2022-11-25T08:19:46.880Z,2.69
2022-11-25T08:22:14.914Z,2.70
2022-11-25T08:24:43.340Z,2.69
2022-11-25T08:27:11.380Z,2.74
2022-11-25T08:29:40.794Z,2.75
2022-11-25T08:32:11.933Z,2.77
2022-11-25T08:34:40.339Z,2.80
2022-11-25T08:37:10.709Z,2.86
2022-11-25T08:39:54.284Z,2.84
2022-11-25T08:42:22.467Z,2.87
2022-11-25T08:44:55.540Z,2.95
2022-11-25T08:47:24.173Z,3.02
2022-11-25T08:49:53.272Z,3.12
2022-11-25T08:52:21.871Z,3.21
2022-11-25T08:54:50.271Z,3.28
2022-11-25T08:57:18.420Z,3.38
2022-11-25T08:59:46.552Z,3.48
2022-11-25T09:02:18.008Z,3.55
2022-11-25T09:04:46.340Z,3.55
2022-11-25T09:07:14.636Z,3.67
2022-11-25T09:09:42.859Z,3.88
2022-11-25T09:12:11.089Z,4.06
2022-11-25T09:14:40.548Z,4.24
2022-11-25T09:17:10.619Z,4.34
2022-11-25T09:19:40.624Z,4.50
2022-11-25T09:22:09.177Z,4.63
2022-11-25T09:24:43.794Z,4.76
2022-11-25T09:27:12.230Z,4.83
2022-11-25T09:29:40.861Z,5.04
2022-11-25T09:32:09.053Z,5.15
2022-11-25T09:34:37.533Z,5.22
2022-11-25T09:37:07.256Z,5.20
2022-11-25T09:39:35.878Z,5.22
2022-11-25T09:42:37.099Z,5.22
2022-11-25T09:45:35.470Z,5.27
2022-11-25T09:48:21.499Z,5.34
2022-11-25T09:50:59.190Z,5.39
2022-11-25T09:53:42.793Z,5.41
2022-11-25T09:56:20.719Z,5.42
2022-11-25T09:58:53.338Z,5.46
2022-11-25T10:01:26.049Z,5.47
2022-11-25T10:03:57.989Z,5.54
2022-11-25T10:06:27.954Z,5.61
2022-11-25T10:09:00.229Z,5.67
2022-11-25T10:11:39.108Z,5.72
2022-11-25T10:14:14.124Z,5.78
2022-11-25T10:16:51.718Z,5.85
2022-11-25T10:19:31.609Z,5.85
2022-11-25T10:21:59.929Z,5.93
2022-11-25T10:24:29.448Z,5.95
2022-11-25T10:27:06.420Z,5.99
2022-11-25T10:29:39.310Z,6.07
2022-11-25T10:32:21.687Z,6.14
2022-11-25T10:34:54.339Z,6.23
2022-11-25T10:37:28.717Z,6.31
2022-11-25T10:39:58.504Z,6.39
2022-11-25T10:42:28.982Z,6.42
2022-11-25T10:44:57.348Z,6.43
2022-11-25T10:47:35.531Z,6.46
2022-11-25T10:50:17.429Z,6.48
2022-11-25T10:52:53.009Z,6.58
2022-11-25T10:55:25.839Z,6.77
2022-11-25T10:57:54.297Z,6.89
2022-11-25T11:00:29.928Z,6.95
2022-11-25T11:03:01.308Z,6.99
2022-11-25T11:05:31.718Z,6.96
2022-11-25T11:08:17.523Z,6.79
2022-11-25T11:10:50.582Z,6.67
2022-11-25T11:13:26.001Z,6.60
2022-11-25T11:15:55.390Z,6.57
2022-11-25T11:18:27.670Z,6.61
2022-11-25T11:20:57.580Z,6.66
2022-11-25T11:23:26.549Z,6.66
2022-11-25T11:26:00.895Z,6.67
2022-11-25T11:28:38.679Z,6.66
2022-11-25T11:31:15.870Z,6.69
2022-11-25T11:33:53.999Z,6.65
2022-11-25T11:36:35.508Z,6.70
2022-11-25T11:39:20.659Z,6.75
2022-11-25T11:41:56.861Z,6.78
2022-11-25T11:44:35.705Z,6.78
2022-11-25T11:47:16.628Z,6.79
2022-11-25T11:49:59.270Z,6.83
2022-11-25T11:52:42.347Z,6.89
2022-11-25T11:55:26.009Z,6.88
2022-11-25T11:58:03.520Z,6.90
2022-11-25T12:00:37.180Z,6.98
2022-11-25T12:03:14.365Z,7.00
2022-11-25T12:05:43.088Z,6.98
2022-11-25T12:08:15.899Z,7.00
2022-11-25T12:10:48.448Z,7.01
2022-11-25T12:13:24.197Z,7.00
2022-11-25T12:15:55.976Z,7.03
2022-11-25T12:18:36.138Z,7.10
2022-11-25T12:21:06.348Z,7.14
2022-11-25T12:23:44.079Z,7.13
2022-11-25T12:26:16.721Z,7.16
2022-11-25T12:28:53.321Z,7.19
2022-11-25T12:31:27.629Z,7.18
2022-11-25T12:34:05.273Z,7.22
2022-11-25T12:36:36.639Z,7.19
2022-11-25T12:39:07.100Z,7.20
2022-11-25T12:41:43.268Z,7.30
2022-11-25T12:44:19.458Z,7.31
2022-11-25T12:46:50.189Z,7.26
2022-11-25T12:49:21.999Z,7.24
2022-11-25T12:52:10.308Z,7.27
2022-11-25T12:54:57.010Z,7.29
2022-11-25T12:57:52.898Z,7.31
2022-11-25T13:00:40.949Z,7.32
2022-11-25T13:03:35.508Z,7.30
2022-11-25T13:06:30.980Z,7.31
2022-11-25T13:09:10.179Z,7.29
2022-11-25T13:12:01.707Z,7.31
2022-11-25T13:15:01.846Z,7.38
2022-11-25T13:17:37.780Z,7.43
2022-11-25T13:20:39.928Z,7.43
2022-11-25T13:23:22.556Z,7.47
2022-11-25T13:25:52.794Z,7.56
2022-11-25T13:28:39.268Z,7.57
2022-11-25T13:31:27.232Z,7.55
2022-11-25T13:34:10.286Z,7.55
2022-11-25T13:36:58.136Z,7.54
2022-11-25T13:39:34.158Z,7.59
2022-11-25T13:42:06.357Z,7.59
2022-11-25T13:44:36.385Z,7.55
2022-11-25T13:47:25.066Z,7.55
2022-11-25T13:49:57.298Z,7.52
2022-11-25T13:52:36.057Z,7.57
2022-11-25T13:55:11.241Z,7.56
2022-11-25T13:57:42.558Z,7.50
2022-11-25T14:00:49.650Z,7.51
2022-11-25T14:03:45.910Z,7.44
2022-11-25T14:06:28.351Z,7.48
2022-11-25T14:09:02.716Z,7.50
2022-11-25T14:11:46.230Z,7.50
2022-11-25T14:14:29.858Z,7.53
2022-11-25T14:17:15.336Z,7.50
2022-11-25T14:20:05.393Z,7.45
2022-11-25T14:22:52.951Z,7.38
2022-11-25T14:25:26.700Z,7.38
2022-11-25T14:28:03.490Z,7.38
2022-11-25T14:30:33.839Z,7.38
2022-11-25T14:33:05.858Z,7.44
2022-11-25T14:35:45.395Z,7.41
2022-11-25T14:38:18.829Z,7.36
2022-11-25T14:40:54.993Z,7.27
2022-11-25T14:43:25.239Z,7.17
2022-11-25T14:46:11.787Z,7.28
2022-11-25T14:48:40.032Z,7.30
2022-11-25T14:51:11.709Z,7.29
2022-11-25T14:53:47.557Z,7.29
2022-11-25T14:56:22.261Z,7.20
2022-11-25T14:58:53.160Z,7.10
2022-11-25T15:01:23.700Z,7.06
2022-11-25T15:03:53.266Z,7.00
2022-11-25T15:06:22.840Z,7.09
2022-11-25T15:08:56.989Z,7.23
2022-11-25T15:11:29.491Z,7.26
2022-11-25T15:14:01.988Z,7.26
2022-11-25T15:16:35.159Z,7.28
2022-11-25T15:19:05.980Z,7.28
2022-11-25T15:21:48.644Z,7.23
2022-11-25T15:24:27.650Z,7.13
2022-11-25T15:26:59.198Z,7.06
2022-11-25T15:29:30.235Z,6.99
2022-11-25T15:32:01.164Z,6.92
2022-11-25T15:34:30.819Z,6.84
2022-11-25T15:37:03.679Z,6.78
2022-11-25T15:39:31.909Z,6.73
2022-11-25T15:42:09.398Z,6.68
2022-11-25T15:44:42.079Z,6.60
2022-11-25T15:47:22.223Z,6.55
2022-11-25T15:49:58.609Z,6.47
2022-11-25T15:52:31.328Z,6.47
2022-11-25T15:55:04.319Z,6.46
2022-11-25T15:57:35.578Z,6.49
2022-11-25T16:00:15.841Z,6.46
2022-11-25T16:03:04.221Z,6.37
2022-11-25T16:05:35.631Z,6.32
2022-11-25T16:11:00.610Z,6.26
2022-11-25T16:13:33.610Z,6.28
2022-11-25T16:16:10.503Z,6.23
2022-11-25T16:18:41.975Z,6.24
2022-11-25T16:21:12.789Z,6.23
2022-11-25T16:23:46.592Z,6.18
2022-11-25T16:26:17.958Z,6.21
2022-11-25T16:28:54.046Z,6.21
2022-11-25T16:31:22.565Z,6.27
2022-11-25T16:33:51.891Z,6.26
2022-11-25T16:36:20.065Z,6.25
2022-11-25T16:38:53.428Z,6.29
2022-11-25T16:41:27.033Z,6.26
2022-11-25T16:43:57.195Z,6.25
2022-11-25T16:46:28.637Z,6.21
2022-11-25T16:48:56.750Z,6.21
2022-11-25T16:51:25.939Z,6.21
2022-11-25T16:53:54.129Z,6.26
2022-11-25T16:56:27.761Z,6.43
2022-11-25T16:58:56.490Z,6.57
2022-11-25T17:01:27.300Z,6.71
2022-11-25T17:03:55.629Z,6.74
2022-11-25T17:06:25.964Z,6.69
2022-11-25T17:08:54.180Z,6.59
2022-11-25T17:11:28.698Z,6.60
2022-11-25T17:13:59.808Z,6.58
2022-11-25T17:16:30.023Z,6.53
2022-11-25T17:19:00.943Z,6.53
2022-11-25T17:21:29.745Z,6.50
2022-11-25T17:24:02.589Z,6.46
2022-11-25T17:26:38.001Z,6.41
2022-11-25T17:29:09.729Z,6.39
2022-11-25T17:31:39.144Z,6.40
2022-11-25T17:34:07.368Z,6.40
2022-11-25T17:36:35.565Z,6.36
2022-11-25T17:39:03.628Z,6.34
2022-11-25T17:41:38.375Z,6.31
2022-11-25T17:44:14.078Z,6.27
2022-11-25T17:46:42.318Z,6.23
2022-11-25T17:49:15.058Z,6.14
2022-11-25T17:51:43.459Z,6.12
2022-11-25T17:54:11.969Z,6.14
2022-11-25T17:56:45.469Z,6.10
2022-11-25T17:59:19.369Z,6.03
2022-11-25T18:01:47.670Z,5.90
2022-11-25T18:04:18.246Z,5.75
2022-11-25T18:06:46.408Z,5.70
2022-11-25T18:09:14.747Z,5.68
2022-11-25T18:11:48.968Z,5.67
2022-11-25T18:14:23.209Z,5.62
2022-11-25T18:16:51.534Z,5.56
2022-11-25T18:19:19.619Z,5.47
2022-11-25T18:21:48.059Z,5.44
2022-11-25T18:24:16.219Z,5.38
2022-11-25T18:26:47.956Z,5.40
2022-11-25T18:29:19.968Z,5.36
2022-11-25T18:31:49.849Z,5.31
2022-11-25T18:34:19.238Z,5.25
2022-11-25T18:36:47.378Z,5.18
2022-11-25T18:39:15.429Z,5.12
2022-11-25T18:41:46.578Z,5.07
2022-11-25T18:44:25.901Z,5.01
2022-11-25T18:46:55.309Z,4.95
2022-11-25T18:49:23.995Z,4.83
2022-11-25T18:51:52.188Z,4.85
2022-11-25T18:54:20.270Z,4.81
2022-11-25T18:56:52.934Z,4.74
2022-11-25T18:59:27.979Z,4.67
2022-11-25T19:01:56.415Z,4.61
2022-11-25T19:04:24.692Z,4.54
2022-11-25T19:06:52.887Z,4.66
2022-11-25T19:09:20.969Z,4.68
2022-11-25T19:11:53.342Z,4.61
2022-11-25T19:14:29.060Z,4.53
2022-11-25T19:16:59.517Z,4.40
2022-11-25T19:19:27.708Z,4.31
2022-11-25T19:21:55.878Z,4.19
2022-11-25T19:24:23.987Z,4.15
2022-11-25T19:26:57.037Z,4.08
2022-11-25T19:29:31.296Z,3.97
2022-11-25T19:32:02.045Z,3.94
2022-11-25T19:34:34.588Z,3.91
2022-11-25T19:37:03.225Z,3.86
2022-11-25T19:39:36.146Z,3.85
2022-11-25T19:42:05.654Z,3.82
2022-11-25T19:44:33.781Z,3.79
2022-11-25T19:47:17.409Z,3.73
2022-11-25T19:49:46.087Z,3.68
2022-11-25T19:52:17.418Z,3.75
2022-11-25T19:54:45.579Z,3.82
2022-11-25T19:57:18.048Z,3.86
2022-11-25T19:59:46.889Z,3.82
2022-11-25T20:02:17.408Z,3.76
2022-11-25T20:04:46.877Z,3.69
2022-11-25T20:07:17.383Z,3.60
2022-11-25T20:09:45.758Z,3.59
2022-11-25T20:12:21.558Z,3.54
2022-11-25T20:14:49.938Z,3.50
2022-11-25T20:17:24.682Z,3.51
2022-11-25T20:19:54.786Z,3.57
2022-11-25T20:22:27.728Z,3.63
2022-11-25T20:24:56.738Z,3.72
2022-11-25T20:27:27.828Z,3.80
2022-11-25T20:29:56.718Z,3.91
2022-11-25T20:32:29.008Z,4.06
2022-11-25T20:34:57.618Z,4.17
2022-11-25T20:37:26.760Z,4.23
2022-11-25T20:39:57.339Z,4.30
2022-11-25T20:42:28.339Z,4.37
2022-11-25T20:44:57.985Z,4.44
2022-11-25T20:47:27.424Z,4.52
2022-11-25T20:49:55.558Z,4.57
2022-11-25T20:52:30.971Z,4.58
2022-11-25T20:54:59.479Z,4.58
2022-11-25T20:57:28.838Z,4.60
2022-11-25T20:59:57.018Z,4.64
2022-11-25T21:02:25.088Z,4.75
2022-11-25T21:04:53.318Z,4.83
2022-11-25T21:07:21.428Z,4.97
2022-11-25T21:09:49.657Z,5.07
2022-11-25T21:12:19.685Z,5.11
2022-11-25T21:14:50.300Z,5.15
2022-11-25T21:17:18.472Z,5.16
2022-11-25T21:19:46.556Z,5.16
2022-11-25T21:22:15.602Z,5.14
2022-11-25T21:24:44.725Z,5.15
2022-11-25T21:27:15.658Z,5.18
2022-11-25T21:29:46.399Z,5.18
2022-11-25T21:32:21.962Z,5.16
2022-11-25T21:34:50.587Z,5.16
2022-11-25T21:37:24.948Z,5.16
2022-11-25T21:39:53.237Z,5.14
2022-11-25T21:42:22.939Z,5.14
2022-11-25T21:44:53.048Z,5.18
2022-11-25T21:47:24.608Z,5.24
2022-11-25T21:49:53.730Z,5.25
2022-11-25T21:52:22.089Z,5.29
2022-11-25T21:54:50.248Z,5.33
2022-11-25T21:57:21.148Z,5.40
2022-11-25T21:59:49.838Z,5.42
2022-11-25T22:02:20.539Z,5.42
2022-11-25T22:04:50.768Z,5.42
2022-11-25T22:07:19.298Z,5.41
2022-11-25T22:09:47.698Z,5.42
2022-11-25T22:12:27.973Z,5.43
2022-11-25T22:14:57.749Z,5.42
2022-11-25T22:17:26.058Z,5.41
2022-11-25T22:19:55.821Z,5.40
2022-11-25T22:22:25.162Z,5.39
2022-11-25T22:24:53.320Z,5.38
2022-11-25T22:27:23.937Z,5.35
2022-11-25T22:29:52.922Z,5.33
2022-11-25T22:32:21.056Z,5.35
2022-11-25T22:34:49.249Z,5.38
2022-11-25T22:37:21.405Z,5.37
2022-11-25T22:39:49.878Z,5.35
2022-11-25T22:42:25.658Z,5.34
2022-11-25T22:44:56.318Z,5.34
2022-11-25T22:47:29.638Z,5.36
2022-11-25T22:49:57.837Z,5.39
2022-11-25T22:52:30.549Z,5.39
2022-11-25T22:55:00.669Z,5.38
2022-11-25T22:57:28.818Z,5.34
2022-11-25T22:59:56.987Z,5.33
2022-11-25T23:02:30.227Z,5.31
2022-11-25T23:04:58.568Z,5.32
2022-11-25T23:07:28.217Z,5.35
2022-11-25T23:09:56.898Z,5.36
2022-11-25T23:12:25.050Z,5.35
2022-11-25T23:14:53.097Z,5.34
2022-11-25T23:17:24.339Z,5.33
2022-11-25T23:19:53.232Z,5.33
2022-11-25T23:22:21.588Z,5.31
2022-11-25T23:24:51.116Z,5.28
2022-11-25T23:27:19.278Z,5.23
2022-11-25T23:29:47.467Z,5.15
2022-11-25T23:32:19.505Z,5.04
2022-11-25T23:34:50.670Z,4.96
2022-11-25T23:37:19.273Z,4.90
2022-11-25T23:39:53.178Z,4.86
2022-11-25T23:42:22.047Z,4.80
2022-11-25T23:44:50.171Z,4.76
2022-11-25T23:47:21.491Z,4.72
2022-11-25T23:49:53.217Z,4.72
2022-11-25T23:52:24.192Z,4.71
2022-11-25T23:54:54.267Z,4.76
2022-11-25T23:57:24.709Z,4.90
2022-11-25T23:59:53.517Z,5.13
